Time,TemperatureF,DewpointF,PressureIn,WindDirection,WindDirectionDegrees,WindSpeedMPH,WindSpeedGustMPH,Humidity,HourlyPrecipIn,Conditions,Clouds,dailyrainin,SoftwareType,DateUTC
2013-09-28 00:04:00,52.0,51.0,30.22,NNE,20,0.0,0.0,95,0.00,,,0.00,,2013-09-28 04:04:00,
2013-09-28 00:25:00,52.0,51.0,30.23,NNE,20,0.0,0.0,96,0.00,,,0.00,,2013-09-28 04:25:00,
2013-09-28 00:43:00,52.0,51.0,30.23,NNE,20,0.0,0.0,96,0.00,,,0.00,,2013-09-28 04:43:00,
2013-09-28 00:54:00,51.0,50.0,30.22,NNE,20,0.0,0.0,96,0.00,,,0.00,,2013-09-28 04:54:00,
2013-09-28 01:13:00,51.0,50.0,30.22,NNE,20,0.0,0.0,96,0.00,,,0.00,,2013-09-28 05:13:00,
2013-09-28 01:22:00,51.0,50.0,30.23,NNE,20,0.0,0.0,96,0.00,,,0.00,,2013-09-28 05:22:00,
2013-09-28 01:34:00,51.0,50.0,30.23,NNE,20,0.0,0.0,96,0.00,,,0.00,,2013-09-28 05:34:00,
2013-09-28 01:53:00,51.0,50.0,30.23,NNE,20,0.0,0.0,96,0.00,,,0.00,,2013-09-28 05:53:00,
2013-09-28 02:13:00,51.0,50.0,30.23,NNE,20,0.0,0.0,97,0.00,,,0.00,,2013-09-28 06:13:00,
2013-09-28 02:22:00,51.0,50.0,30.22,NNE,20,0.0,1.0,97,0.00,,,0.00,,2013-09-28 06:22:00,
2013-09-28 02:32:00,51.0,50.0,30.22,NNE,20,0.0,1.0,97,0.00,,,0.00,,2013-09-28 06:32:00,
2013-09-28 02:52:00,51.0,50.0,30.22,North,355,0.0,1.0,97,0.00,,,0.00,,2013-09-28 06:52:00,
2013-09-28 03:02:00,51.0,50.0,30.22,North,355,0.0,1.0,97,0.00,,,0.00,,2013-09-28 07:02:00,
2013-09-28 03:12:00,51.0,50.0,30.22,North,355,0.0,1.0,97,0.00,,,0.00,,2013-09-28 07:12:00,
2013-09-28 03:22:00,51.0,50.0,30.22,North,355,0.0,0.0,97,0.00,,,0.00,,2013-09-28 07:22:00,
2013-09-28 03:52:00,51.0,50.0,30.22,North,353,0.0,0.0,97,0.00,,,0.00,,2013-09-28 07:52:00,
2013-09-28 04:22:00,50.0,49.0,30.22,North,353,0.0,1.0,97,0.00,,,0.00,,2013-09-28 08:22:00,
2013-09-28 04:53:00,50.0,49.0,30.22,North,353,0.0,2.0,97,0.00,,,0.00,,2013-09-28 08:53:00,
2013-09-28 05:11:00,50.0,49.0,30.22,North,353,0.0,1.0,97,0.00,,,0.00,,2013-09-28 09:11:00,
2013-09-28 05:22:00,50.0,49.0,30.22,NNW,346,0.0,1.0,97,0.00,,,0.00,,2013-09-28 09:22:00,
2013-09-28 05:33:00,50.0,49.0,30.22,NNW,346,0.0,1.0,97,0.00,,,0.00,,2013-09-28 09:33:00,
2013-09-28 05:54:00,50.0,49.0,30.23,NNW,346,0.0,1.0,97,0.00,,,0.00,,2013-09-28 09:54:00,
2013-09-28 06:03:00,50.0,49.0,30.23,NNW,346,0.0,1.0,97,0.00,,,0.00,,2013-09-28 10:03:00,
2013-09-28 06:13:00,50.0,49.0,30.23,NNW,346,0.0,1.0,97,0.00,,,0.00,,2013-09-28 10:13:00,
2013-09-28 06:22:00,50.0,49.0,30.23,NNW,346,0.0,1.0,97,0.00,,,0.00,,2013-09-28 10:22:00,
2013-09-28 06:52:00,50.0,49.0,30.24,NNW,347,0.0,2.0,98,0.00,,,0.00,,2013-09-28 10:52:00,
2013-09-28 07:03:00,50.0,49.0,30.24,NNW,347,0.0,2.0,98,0.00,,,0.00,,2013-09-28 11:03:00,
2013-09-28 07:12:00,50.0,49.0,30.24,NNW,347,0.0,2.0,98,0.00,,,0.00,,2013-09-28 11:12:00,
2013-09-28 07:22:00,50.0,49.0,30.25,NNW,347,0.0,1.0,98,0.00,,,0.00,,2013-09-28 11:22:00,
2013-09-28 07:52:00,52.0,52.0,30.26,NNW,347,0.0,1.0,99,0.00,,,0.00,,2013-09-28 11:52:00,
2013-09-28 08:12:00,52.0,52.0,30.26,NNW,347,0.0,0.0,99,0.00,,,0.00,,2013-09-28 12:12:00,
2013-09-28 08:22:00,55.0,55.0,30.26,NNW,348,0.0,0.0,100,0.00,,,0.00,,2013-09-28 12:22:00,
2013-09-28 08:32:00,55.0,55.0,30.26,NNW,348,0.0,0.0,100,0.00,,,0.00,,2013-09-28 12:32:00,
2013-09-28 08:51:00,61.0,60.0,30.27,NNE,23,1.0,8.0,95,0.00,,,0.00,,2013-09-28 12:51:00,
2013-09-28 08:52:00,60.0,60.0,30.27,North,1,0.0,5.0,100,0.00,,,0.00,,2013-09-28 12:52:00,
2013-09-28 09:12:00,60.0,60.0,30.27,NNE,20,1.0,7.0,100,0.00,,,0.00,,2013-09-28 13:12:00,
2013-09-28 09:22:00,61.0,60.0,30.27,NNE,23,1.0,8.0,95,0.00,,,0.00,,2013-09-28 13:22:00,
2013-09-28 09:32:00,61.0,60.0,30.27,NNE,23,1.0,8.0,95,0.00,,,0.00,,2013-09-28 13:32:00,
2013-09-28 10:12:00,65.0,61.0,30.28,North,357,1.0,9.0,86,0.00,,,0.00,,2013-09-28 14:12:00,
2013-09-28 10:22:00,65.0,60.0,30.28,NNE,14,1.0,7.0,85,0.00,,,0.00,,2013-09-28 14:22:00,
2013-09-28 10:32:00,65.0,60.0,30.28,NNE,14,1.0,7.0,85,0.00,,,0.00,,2013-09-28 14:32:00,
2013-09-28 10:42:00,65.0,60.0,30.28,NNE,14,1.0,7.0,85,0.00,,,0.00,,2013-09-28 14:42:00,
2013-09-28 10:52:00,65.0,60.0,30.28,North,6,1.0,10.0,83,0.00,,,0.00,,2013-09-28 14:52:00,
2013-09-28 11:03:00,65.0,60.0,30.28,North,6,1.0,10.0,83,0.00,,,0.00,,2013-09-28 15:03:00,
2013-09-28 11:12:00,65.0,60.0,30.28,North,6,1.0,10.0,83,0.00,,,0.00,,2013-09-28 15:12:00,
2013-09-28 11:23:00,66.0,61.0,30.28,North,353,3.0,11.0,83,0.00,,,0.00,,2013-09-28 15:23:00,
2013-09-28 11:54:00,66.0,60.0,30.28,NNW,345,3.0,8.0,82,0.00,,,0.00,,2013-09-28 15:54:00,
2013-09-28 12:14:00,66.0,60.0,30.28,North,351,1.0,9.0,82,0.00,,,0.00,,2013-09-28 16:14:00,
2013-09-28 12:24:00,67.0,61.0,30.28,NNW,344,2.0,8.0,82,0.00,,,0.00,,2013-09-28 16:24:00,
2013-09-28 12:34:00,67.0,61.0,30.28,NNW,344,2.0,8.0,82,0.00,,,0.00,,2013-09-28 16:34:00,
2013-09-28 12:54:00,67.0,60.0,30.28,North,9,2.0,6.0,79,0.00,,,0.00,,2013-09-28 16:54:00,
2013-09-28 13:03:00,67.0,60.0,30.28,North,9,2.0,6.0,79,0.00,,,0.00,,2013-09-28 17:03:00,
2013-09-28 13:13:00,67.0,60.0,30.28,North,9,2.0,6.0,79,0.00,,,0.00,,2013-09-28 17:13:00,
2013-09-28 13:23:00,67.0,61.0,30.27,North,349,2.0,10.0,80,0.00,,,0.00,,2013-09-28 17:23:00,
2013-09-28 13:52:00,67.0,61.0,30.27,NNW,338,4.0,11.0,80,0.00,,,0.00,,2013-09-28 17:52:00,
2013-09-28 14:02:00,67.0,61.0,30.27,NNW,338,4.0,11.0,80,0.00,,,0.00,,2013-09-28 18:02:00,
2013-09-28 14:12:00,67.0,61.0,30.27,NNW,338,4.0,11.0,80,0.00,,,0.00,,2013-09-28 18:12:00,
2013-09-28 14:22:00,67.0,61.0,30.27,NNW,348,4.0,11.0,82,0.00,,,0.00,,2013-09-28 18:22:00,
2013-09-28 14:32:00,67.0,61.0,30.27,NNW,348,4.0,11.0,82,0.00,,,0.00,,2013-09-28 18:32:00,
2013-09-28 14:42:00,67.0,61.0,30.27,NNW,348,4.0,11.0,82,0.00,,,0.00,,2013-09-28 18:42:00,
2013-09-28 14:52:00,67.0,61.0,30.26,North,354,5.0,9.0,81,0.00,,,0.00,,2013-09-28 18:52:00,
2013-09-28 15:11:00,66.0,60.0,30.26,NNW,341,3.0,9.0,80,0.00,,,0.00,,2013-09-28 19:11:00,
2013-09-28 15:22:00,66.0,60.0,30.26,NNW,343,1.0,8.0,80,0.00,,,0.00,,2013-09-28 19:22:00,
2013-09-28 15:32:00,66.0,60.0,30.26,NNW,343,1.0,8.0,80,0.00,,,0.00,,2013-09-28 19:32:00,
2013-09-28 15:52:00,66.0,59.0,30.26,NNE,30,1.0,9.0,77,0.00,,,0.00,,2013-09-28 19:52:00,
2013-09-28 16:12:00,66.0,59.0,30.26,NNE,32,1.0,8.0,79,0.00,,,0.00,,2013-09-28 20:12:00,
2013-09-28 16:22:00,66.0,59.0,30.26,NNE,32,1.0,8.0,79,0.00,,,0.00,,2013-09-28 20:22:00,
2013-09-28 16:43:00,66.0,56.0,30.25,NE,41,2.0,7.0,71,0.00,,,0.00,,2013-09-28 20:43:00,
2013-09-28 16:53:00,66.0,57.0,30.26,ESE,118,0.0,8.0,72,0.00,,,0.00,,2013-09-28 20:53:00,
2013-09-28 17:02:00,66.0,57.0,30.26,ESE,118,0.0,8.0,72,0.00,,,0.00,,2013-09-28 21:02:00,
2013-09-28 17:12:00,66.0,57.0,30.26,ESE,118,0.0,8.0,72,0.00,,,0.00,,2013-09-28 21:12:00,
2013-09-28 17:23:00,65.0,55.0,30.26,East,87,1.0,6.0,70,0.00,,,0.00,,2013-09-28 21:23:00,
2013-09-28 17:55:00,64.0,54.0,30.26,NE,39,1.0,5.0,70,0.00,,,0.00,,2013-09-28 21:55:00,
2013-09-28 18:14:00,64.0,54.0,30.26,NE,48,0.0,5.0,71,0.00,,,0.00,,2013-09-28 22:14:00,
2013-09-28 18:23:00,63.0,54.0,30.26,NE,47,0.0,1.0,72,0.00,,,0.00,,2013-09-28 22:23:00,
2013-09-28 18:43:00,62.0,52.0,30.27,NE,47,0.0,1.0,71,0.00,,,0.00,,2013-09-28 22:43:00,
2013-09-28 18:54:00,61.0,52.0,30.26,NE,47,0.0,0.0,72,0.00,,,0.00,,2013-09-28 22:54:00,
2013-09-28 19:03:00,61.0,52.0,30.26,NE,47,0.0,0.0,72,0.00,,,0.00,,2013-09-28 23:03:00,
2013-09-28 19:12:00,61.0,52.0,30.26,NE,47,0.0,0.0,72,0.00,,,0.00,,2013-09-28 23:12:00,
2013-09-28 19:22:00,59.0,51.0,30.26,ESE,102,0.0,3.0,74,0.00,,,0.00,,2013-09-28 23:22:00,
2013-09-28 19:34:00,59.0,51.0,30.26,ESE,102,0.0,3.0,74,0.00,,,0.00,,2013-09-28 23:34:00,
2013-09-28 19:53:00,58.0,52.0,30.26,ESE,112,0.0,0.0,80,0.00,,,0.00,,2013-09-28 23:53:00,
2013-09-28 20:12:00,57.0,52.0,30.26,East,88,0.0,3.0,82,0.00,,,0.00,,2013-09-29 00:12:00,
2013-09-28 20:22:00,55.0,51.0,30.26,East,88,0.0,0.0,86,0.00,,,0.00,,2013-09-29 00:22:00,
2013-09-28 20:43:00,55.0,51.0,30.26,East,88,0.0,0.0,87,0.00,,,0.00,,2013-09-29 00:43:00,
2013-09-28 20:52:00,55.0,51.0,30.26,East,88,0.0,0.0,87,0.00,,,0.00,,2013-09-29 00:52:00,
2013-09-28 21:22:00,53.0,50.0,30.26,East,88,0.0,0.0,91,0.00,,,0.00,,2013-09-29 01:22:00,
2013-09-28 21:32:00,53.0,50.0,30.26,East,88,0.0,0.0,91,0.00,,,0.00,,2013-09-29 01:32:00,
2013-09-28 21:43:00,53.0,50.0,30.26,East,88,0.0,0.0,91,0.00,,,0.00,,2013-09-29 01:43:00,
2013-09-28 21:52:00,52.0,50.0,30.26,East,88,0.0,1.0,93,0.00,,,0.00,,2013-09-29 01:52:00,
2013-09-28 22:03:00,52.0,50.0,30.26,East,88,0.0,1.0,93,0.00,,,0.00,,2013-09-29 02:03:00,
2013-09-28 22:12:00,52.0,50.0,30.26,East,88,0.0,1.0,93,0.00,,,0.00,,2013-09-29 02:12:00,
2013-09-28 22:22:00,52.0,50.0,30.26,East,88,0.0,1.0,94,0.00,,,0.00,,2013-09-29 02:22:00,
2013-09-28 22:43:00,52.0,51.0,30.25,East,88,0.0,1.0,95,0.00,,,0.00,,2013-09-29 02:43:00,
2013-09-28 22:53:00,52.0,51.0,30.25,East,88,0.0,1.0,95,0.00,,,0.00,,2013-09-29 02:53:00,
2013-09-28 23:12:00,52.0,50.0,30.24,East,88,0.0,0.0,94,0.00,,,0.00,,2013-09-29 03:12:00,
2013-09-28 23:23:00,51.0,50.0,30.25,East,88,0.0,0.0,95,0.00,,,0.00,,2013-09-29 03:23:00,
2013-09-28 23:55:00,51.0,50.0,30.24,East,88,0.0,0.0,95,0.00,,,0.00,,2013-09-29 03:55:00,